Terminal Aerodrome Forecast
Issued by NWS

Home | Current Version | Previous Version | Text Only | Print | Product List | Glossary Off
Versions: 1 2 3 4 5 6 7 8 9 10 11 12 13 14 15 16 17 18 19 20

000
FTUS42 KMHX 302320
TAFISO
TAF
KISO 302320Z 3100/3124 13006KT P6SM SKC
     FM310800 VRB04KT 4SM BR BKN080
     FM311300 29005KT P6SM SCT050
     FM311600 35005KT P6SM SCT040
      AMD LTD TO CLD VIS AND WIND=

USA.gov is the U.S. government's official web portal to all federal, state and local government web resources and services.